createdAt,value
2019-06-07T00:00:37.569Z,64.70
2019-06-07T00:03:01.110Z,64.60
2019-06-07T00:05:30.683Z,64.60
2019-06-07T00:08:09.765Z,64.60
2019-06-07T00:10:37.323Z,64.60
2019-06-07T00:13:52.042Z,64.60
2019-06-07T00:16:23.901Z,64.60
2019-06-07T00:18:53.364Z,64.70
2019-06-07T00:22:12.049Z,64.60
2019-06-07T00:23:54.027Z,64.60
2019-06-07T00:26:23.469Z,64.60
2019-06-07T00:28:52.714Z,64.60
2019-06-07T00:31:24.502Z,64.50
2019-06-07T00:33:53.365Z,64.50
2019-06-07T00:36:23.444Z,64.50
2019-06-07T00:38:53.195Z,64.50
2019-06-07T00:41:22.654Z,64.50
2019-06-07T00:43:52.105Z,64.50
2019-06-07T00:46:25.106Z,64.50
2019-06-07T00:48:52.758Z,64.50
2019-06-07T00:51:24.054Z,64.50
2019-06-07T00:53:53.605Z,64.50
2019-06-07T00:56:23.533Z,64.50
2019-06-07T00:59:10.246Z,64.50
2019-06-07T01:01:25.540Z,64.60
2019-06-07T01:03:55.328Z,64.40
2019-06-07T01:06:29.769Z,64.50
2019-06-07T01:08:59.268Z,64.40
2019-06-07T01:11:28.723Z,64.40
2019-06-07T01:14:11.811Z,64.40
2019-06-07T01:16:56.657Z,64.30
2019-06-07T01:19:13.796Z,64.30
2019-06-07T01:22:10.996Z,64.30
2019-06-07T01:24:41.828Z,64.40
2019-06-07T01:27:11.271Z,64.40
2019-06-07T01:29:41.815Z,64.30
2019-06-07T01:32:11.759Z,64.30
2019-06-07T01:35:30.022Z,64.30
2019-06-07T01:37:59.198Z,64.30
2019-06-07T01:40:32.592Z,64.30
2019-06-07T01:43:11.832Z,64.30
2019-06-07T01:45:41.718Z,64.30
2019-06-07T01:48:49.033Z,64.30
2019-06-07T01:51:30.703Z,64.20
2019-06-07T01:54:48.706Z,64.20
2019-06-07T01:56:58.930Z,64.20
2019-06-07T01:59:31.601Z,64.20
2019-06-07T02:02:01.119Z,64.20
2019-06-07T02:04:33.209Z,64.20
2019-06-07T02:07:01.719Z,64.10
2019-06-07T02:10:16.165Z,64.10
2019-06-07T02:12:45.583Z,64.10
2019-06-07T02:15:57.143Z,64.10
2019-06-07T02:18:29.116Z,64.10
2019-06-07T02:21:11.909Z,64.10
2019-06-07T02:23:41.310Z,64.10
2019-06-07T02:26:11.959Z,64.00
2019-06-07T02:28:45.537Z,64.10
2019-06-07T02:32:09.118Z,64.00
2019-06-07T02:34:39.820Z,64.00
2019-06-07T02:38:02.974Z,64.00
2019-06-07T02:40:37.428Z,64.00
2019-06-07T02:43:11.858Z,64.00
2019-06-07T02:46:25.380Z,64.00
2019-06-07T02:48:43.805Z,64.00
2019-06-07T02:51:52.124Z,64.00
2019-06-07T02:54:21.457Z,64.00
2019-06-07T02:56:57.823Z,63.90
2019-06-07T02:59:54.897Z,63.90
2019-06-07T03:02:25.544Z,63.90
2019-06-07T03:04:59.904Z,63.90
2019-06-07T03:07:30.635Z,63.90
2019-06-07T03:10:01.955Z,63.90
2019-06-07T03:12:33.530Z,63.90
2019-06-07T03:15:02.612Z,63.90
2019-06-07T03:17:57.339Z,63.90
2019-06-07T03:20:32.842Z,63.90
2019-06-07T03:23:02.262Z,63.80
2019-06-07T03:25:47.143Z,63.80
2019-06-07T03:28:16.550Z,63.80
2019-06-07T03:31:11.095Z,63.80
2019-06-07T03:33:45.072Z,63.80
2019-06-07T03:36:23.319Z,63.80
2019-06-07T03:39:06.418Z,63.70
2019-06-07T03:42:02.500Z,63.70
2019-06-07T03:44:13.095Z,63.80
2019-06-07T03:46:42.567Z,63.80
2019-06-07T03:49:12.023Z,63.70
2019-06-07T03:51:47.955Z,63.70
2019-06-07T03:54:18.046Z,63.70
2019-06-07T03:56:47.577Z,63.70
2019-06-07T03:59:17.015Z,63.70
2019-06-07T04:01:46.574Z,63.80
2019-06-07T04:04:16.062Z,63.60
2019-06-07T04:06:45.566Z,63.80
2019-06-07T04:09:15.082Z,63.70
2019-06-07T04:11:44.611Z,63.70
2019-06-07T04:14:14.100Z,63.70
2019-06-07T04:16:44.823Z,63.70
2019-06-07T04:19:18.115Z,63.60
2019-06-07T04:21:47.548Z,63.70
2019-06-07T04:24:16.980Z,63.60
2019-06-07T04:26:53.918Z,63.60
2019-06-07T04:29:35.666Z,63.60
2019-06-07T04:31:54.431Z,63.70
2019-06-07T04:34:23.842Z,63.70
2019-06-07T04:36:59.128Z,63.70
2019-06-07T04:39:24.787Z,63.80
2019-06-07T04:41:54.062Z,63.70
2019-06-07T04:44:24.083Z,63.70
2019-06-07T04:46:53.415Z,63.90
2019-06-07T04:49:22.867Z,63.70
2019-06-07T04:55:20.642Z,63.90
2019-06-07T04:57:53.958Z,63.80
2019-06-07T05:00:54.272Z,63.80
2019-06-07T05:03:12.243Z,64.50
2019-06-07T05:05:43.756Z,64.00
2019-06-07T05:08:27.505Z,63.90
2019-06-07T05:10:44.268Z,63.80
2019-06-07T05:13:13.840Z,63.80
2019-06-07T05:16:30.381Z,63.90
2019-06-07T05:18:59.950Z,63.80
2019-06-07T05:22:02.830Z,64.20
2019-06-07T05:24:24.078Z,64.10
2019-06-07T05:26:53.506Z,63.90
2019-06-07T05:29:22.998Z,63.80
2019-06-07T05:31:52.467Z,63.70
2019-06-07T05:41:19.113Z,64.10
2019-06-07T05:44:09.145Z,64.20
2019-06-07T05:47:10.389Z,63.80
2019-06-07T05:49:47.942Z,63.70
2019-06-07T05:52:20.757Z,63.90
2019-06-07T05:54:50.285Z,64.30
2019-06-07T05:57:19.685Z,65.00
2019-06-07T06:00:30.007Z,65.70
2019-06-07T06:03:05.212Z,65.30
2019-06-07T06:05:36.331Z,65.40
2019-06-07T06:08:01.799Z,65.40
2019-06-07T06:10:32.470Z,64.70
2019-06-07T06:13:05.944Z,65.10
2019-06-07T06:15:47.403Z,64.50
2019-06-07T06:18:06.594Z,64.80
2019-06-07T06:21:01.008Z,64.90
2019-06-07T06:23:11.162Z,64.50
2019-06-07T06:25:45.017Z,64.70
2019-06-07T06:28:13.103Z,64.50
2019-06-07T06:30:45.873Z,64.60
2019-06-07T06:33:30.653Z,64.70
2019-06-07T06:35:48.918Z,64.60
2019-06-07T06:38:16.565Z,64.40
2019-06-07T06:40:49.062Z,65.20
2019-06-07T06:43:17.376Z,64.70
2019-06-07T06:45:50.354Z,64.90
2019-06-07T06:48:18.262Z,64.50
2019-06-07T06:50:52.122Z,64.20
2019-06-07T06:53:19.039Z,64.40
2019-06-07T06:56:06.086Z,64.40
2019-06-07T06:59:18.654Z,64.40
2019-06-07T07:01:07.235Z,64.60
2019-06-07T07:03:57.311Z,64.50
2019-06-07T07:06:25.382Z,64.20
2019-06-07T07:08:38.972Z,64.60
2019-06-07T07:11:52.341Z,64.50
2019-06-07T07:14:24.196Z,64.30
2019-06-07T07:17:53.925Z,64.20
2019-06-07T07:20:17.448Z,64.30
2019-06-07T07:23:17.449Z,64.10
2019-06-07T07:25:55.498Z,64.90
2019-06-07T07:28:18.215Z,64.80
2019-06-07T07:30:52.732Z,64.70
2019-06-07T07:33:24.105Z,64.50
2019-06-07T07:36:17.570Z,64.60
2019-06-07T07:39:33.138Z,64.60
2019-06-07T07:42:20.229Z,64.60
2019-06-07T07:44:33.768Z,64.50
2019-06-07T07:47:03.296Z,64.30
2019-06-07T07:49:32.769Z,64.40
2019-06-07T07:52:02.263Z,64.30
2019-06-07T07:54:31.553Z,64.30
2019-06-07T07:57:00.851Z,64.40
2019-06-07T07:59:41.915Z,64.40
2019-06-07T08:02:01.335Z,64.60
2019-06-07T08:05:12.866Z,64.40
2019-06-07T08:07:02.034Z,64.30
2019-06-07T08:09:31.487Z,64.30
2019-06-07T08:12:02.592Z,64.30
2019-06-07T08:14:42.228Z,64.30
2019-06-07T08:17:11.795Z,64.40
2019-06-07T08:19:41.056Z,64.30
2019-06-07T08:22:10.494Z,64.50
2019-06-07T08:24:40.029Z,64.50
2019-06-07T08:27:25.254Z,64.70
2019-06-07T08:29:45.393Z,64.70
2019-06-07T08:32:11.761Z,64.50
2019-06-07T08:35:06.702Z,65.10
2019-06-07T08:38:14.230Z,65.10
2019-06-07T08:40:08.594Z,64.80
2019-06-07T08:42:59.801Z,64.90
2019-06-07T08:45:13.139Z,64.70
2019-06-07T08:47:48.286Z,64.60
2019-06-07T08:50:17.656Z,64.70
2019-06-07T08:52:47.154Z,64.80
2019-06-07T08:55:16.620Z,64.60
2019-06-07T08:57:45.961Z,64.80
2019-06-07T09:00:43.002Z,64.70
2019-06-07T09:02:46.703Z,64.70
2019-06-07T09:05:16.131Z,64.80
2019-06-07T09:07:45.631Z,64.80
2019-06-07T09:10:15.571Z,64.70
2019-06-07T09:12:45.250Z,64.80
2019-06-07T09:15:22.775Z,64.80
2019-06-07T09:18:41.348Z,64.80
2019-06-07T09:20:49.194Z,65.00
2019-06-07T09:23:18.739Z,64.80
2019-06-07T09:25:57.129Z,64.80
2019-06-07T09:28:20.493Z,64.90
2019-06-07T09:31:09.854Z,64.90
2019-06-07T09:33:37.269Z,64.90
2019-06-07T09:36:10.242Z,64.90
2019-06-07T09:38:48.449Z,65.00
2019-06-07T09:41:46.408Z,65.00
2019-06-07T09:44:04.709Z,64.90
2019-06-07T09:46:26.456Z,65.00
2019-06-07T09:49:21.221Z,65.00
2019-06-07T09:51:27.123Z,65.00
2019-06-07T09:53:58.509Z,65.10
2019-06-07T09:56:27.791Z,65.10
2019-06-07T09:58:59.552Z,65.20
2019-06-07T10:01:28.253Z,65.10
2019-06-07T10:04:02.384Z,65.00
2019-06-07T10:06:28.837Z,65.00
2019-06-07T10:10:07.068Z,65.00
2019-06-07T10:11:29.475Z,65.10
2019-06-07T10:14:06.864Z,65.10
2019-06-07T10:16:46.309Z,65.10
2019-06-07T10:19:07.611Z,65.10
2019-06-07T10:22:16.428Z,65.20
2019-06-07T10:24:45.781Z,65.10
2019-06-07T10:27:15.274Z,65.10
2019-06-07T10:29:44.759Z,65.10
2019-06-07T10:32:14.298Z,65.10
2019-06-07T10:34:43.853Z,65.10
2019-06-07T10:37:15.677Z,65.10
2019-06-07T10:39:48.632Z,65.20
2019-06-07T10:42:15.618Z,65.10
2019-06-07T10:44:45.075Z,65.10
2019-06-07T10:47:14.610Z,65.10
2019-06-07T10:50:17.432Z,65.20
2019-06-07T10:52:48.211Z,65.10
2019-06-07T10:55:17.751Z,65.20
2019-06-07T10:57:47.255Z,65.20
2019-06-07T11:00:18.331Z,65.10
2019-06-07T11:03:07.869Z,65.20
2019-06-07T11:05:48.384Z,65.20
2019-06-07T11:08:17.848Z,65.10
2019-06-07T11:10:47.372Z,65.20
2019-06-07T11:13:16.846Z,65.20
2019-06-07T11:15:46.384Z,65.20
2019-06-07T11:18:15.813Z,65.20
2019-06-07T11:20:45.196Z,65.20
2019-06-07T11:23:14.704Z,65.20
2019-06-07T11:25:44.155Z,65.20
2019-06-07T11:28:14.676Z,65.20
2019-06-07T11:30:44.534Z,65.10
2019-06-07T11:33:16.377Z,65.20
2019-06-07T11:35:45.062Z,65.20
2019-06-07T11:38:14.705Z,65.10
2019-06-07T11:40:43.952Z,65.20
2019-06-07T11:43:13.394Z,65.10
2019-06-07T11:45:42.803Z,65.20
2019-06-07T11:48:13.398Z,65.10
2019-06-07T11:50:42.994Z,65.10
2019-06-07T11:53:12.685Z,65.10
2019-06-07T11:55:42.357Z,65.10
2019-06-07T11:58:16.474Z,65.10
2019-06-07T12:00:43.012Z,65.10
2019-06-07T12:03:13.825Z,65.20
2019-06-07T12:05:43.471Z,65.20
2019-06-07T12:08:13.922Z,65.20
2019-06-07T12:10:43.656Z,65.20
2019-06-07T12:13:15.355Z,65.20
2019-06-07T12:15:44.351Z,65.20
2019-06-07T12:18:15.157Z,65.30
2019-06-07T12:20:44.742Z,65.30
2019-06-07T12:23:16.014Z,65.30
2019-06-07T12:25:45.716Z,65.30
2019-06-07T12:28:15.114Z,65.30
2019-06-07T12:30:44.468Z,65.30
2019-06-07T12:33:13.890Z,65.30
2019-06-07T12:35:54.369Z,65.30
2019-06-07T12:38:23.831Z,65.30
2019-06-07T12:40:57.612Z,65.30
2019-06-07T12:43:24.278Z,65.30
2019-06-07T12:45:53.847Z,65.30
2019-06-07T12:48:25.916Z,65.30
2019-06-07T12:50:58.312Z,65.30
2019-06-07T12:53:28.332Z,65.40
2019-06-07T12:56:00.144Z,65.40
2019-06-07T12:58:34.900Z,65.40
2019-06-07T13:01:00.173Z,65.40
2019-06-07T13:03:29.828Z,65.40
2019-06-07T13:05:59.235Z,65.40
2019-06-07T13:08:28.667Z,65.40
2019-06-07T13:11:14.111Z,65.40
2019-06-07T13:13:36.365Z,65.40
2019-06-07T13:16:05.895Z,65.50
2019-06-07T13:18:35.200Z,65.40
2019-06-07T13:21:04.692Z,65.40
2019-06-07T13:23:34.129Z,65.50
2019-06-07T13:26:03.638Z,65.50
2019-06-07T13:28:33.214Z,65.50
2019-06-07T13:31:02.738Z,65.50
2019-06-07T13:33:38.098Z,65.50
2019-06-07T13:36:03.504Z,65.50
2019-06-07T13:38:33.089Z,65.50
2019-06-07T13:41:02.542Z,65.40
2019-06-07T13:43:31.797Z,65.50
2019-06-07T13:46:01.366Z,65.60
2019-06-07T13:48:30.849Z,65.60
2019-06-07T13:51:00.322Z,65.60
2019-06-07T13:53:29.793Z,65.60
2019-06-07T13:55:59.283Z,65.60
2019-06-07T13:58:28.780Z,65.60
2019-06-07T14:00:58.151Z,65.50
2019-06-07T14:03:32.708Z,65.50
2019-06-07T14:05:58.600Z,65.50
2019-06-07T14:08:29.645Z,65.60
2019-06-07T14:10:59.530Z,65.60
2019-06-07T14:13:30.334Z,65.60
2019-06-07T14:16:00.293Z,65.50
2019-06-07T14:18:30.601Z,65.60
2019-06-07T14:21:06.319Z,65.60
2019-06-07T14:23:48.184Z,65.70
2019-06-07T14:26:06.727Z,65.60
2019-06-07T14:28:36.315Z,65.60
2019-06-07T14:31:05.769Z,65.60
2019-06-07T14:33:59.606Z,65.60
2019-06-07T14:36:29.142Z,65.60
2019-06-07T14:39:34.593Z,65.60
2019-06-07T14:42:09.683Z,65.60
2019-06-07T14:44:35.123Z,65.50
2019-06-07T14:47:06.598Z,65.40
2019-06-07T14:49:35.984Z,65.50
2019-06-07T14:52:06.332Z,65.50
2019-06-07T14:54:58.687Z,65.50
2019-06-07T14:57:57.573Z,65.40
2019-06-07T15:00:39.772Z,65.50
2019-06-07T15:03:12.439Z,65.40
2019-06-07T15:05:41.773Z,65.50
2019-06-07T15:08:11.134Z,65.50
2019-06-07T15:10:42.787Z,65.20
2019-06-07T15:13:12.241Z,65.40
2019-06-07T15:16:05.727Z,65.30
2019-06-07T15:18:36.151Z,65.30
2019-06-07T15:21:07.784Z,65.30
2019-06-07T15:23:37.304Z,65.20
2019-06-07T15:26:06.810Z,65.20
2019-06-07T15:28:38.034Z,65.10
2019-06-07T15:31:13.068Z,64.90
2019-06-07T15:33:42.440Z,64.80
2019-06-07T15:36:12.017Z,65.10
2019-06-07T15:38:41.537Z,64.80
2019-06-07T15:41:10.975Z,64.90
2019-06-07T15:43:40.318Z,64.70
2019-06-07T15:46:09.861Z,64.70
2019-06-07T15:48:40.217Z,64.70
2019-06-07T15:51:09.624Z,64.70
2019-06-07T15:53:44.032Z,64.70
2019-06-07T15:56:10.312Z,64.40
2019-06-07T15:58:39.609Z,64.40
2019-06-07T16:01:09.084Z,64.60
2019-06-07T16:03:39.871Z,64.60
2019-06-07T16:06:29.574Z,64.20
2019-06-07T16:09:07.481Z,64.00
2019-06-07T16:11:43.688Z,64.50
2019-06-07T16:14:13.839Z,64.30
2019-06-07T16:16:43.480Z,64.20
2019-06-07T16:19:12.854Z,64.20
2019-06-07T16:21:43.654Z,64.60
2019-06-07T16:24:13.327Z,64.30
2019-06-07T16:26:44.424Z,64.30
2019-06-07T16:29:14.228Z,64.30
2019-06-07T16:31:44.921Z,64.40
2019-06-07T16:34:14.619Z,64.30
2019-06-07T16:36:44.519Z,64.40
2019-06-07T16:39:29.665Z,64.50
2019-06-07T16:41:59.210Z,64.50
2019-06-07T16:44:28.599Z,64.50
2019-06-07T16:46:58.105Z,64.50
2019-06-07T16:49:42.968Z,64.50
2019-06-07T16:52:12.529Z,64.60
2019-06-07T16:54:41.967Z,65.10
2019-06-07T16:57:11.495Z,65.00
2019-06-07T16:59:41.119Z,65.40
2019-06-07T17:02:10.415Z,65.10
2019-06-07T17:04:39.837Z,64.90
2019-06-07T17:07:09.379Z,65.00
2019-06-07T17:09:39.982Z,64.80
2019-06-07T17:12:09.797Z,65.10
2019-06-07T17:14:40.303Z,65.00
2019-06-07T17:17:09.774Z,65.40
2019-06-07T17:19:39.090Z,65.20
2019-06-07T17:22:08.644Z,65.00
2019-06-07T17:24:39.214Z,65.10
2019-06-07T17:27:08.877Z,65.20
2019-06-07T17:29:39.761Z,65.30
2019-06-07T17:32:09.354Z,65.30
2019-06-07T17:34:39.828Z,65.40
2019-06-07T17:37:09.390Z,65.30
2019-06-07T17:39:40.613Z,65.10
2019-06-07T17:42:10.267Z,65.30
2019-06-07T17:44:40.828Z,65.30
2019-06-07T17:47:10.742Z,65.30
2019-06-07T17:49:40.134Z,65.30
2019-06-07T17:52:09.622Z,66.10
2019-06-07T17:54:39.074Z,65.30
2019-06-07T17:57:08.417Z,65.50
2019-06-07T17:59:38.029Z,65.40
2019-06-07T18:02:14.986Z,65.40
2019-06-07T18:04:39.012Z,65.40
2019-06-07T18:07:09.115Z,65.30
2019-06-07T18:09:38.787Z,65.30
2019-06-07T18:12:08.201Z,65.50
2019-06-07T18:14:37.647Z,65.40
2019-06-07T18:17:07.128Z,65.40
2019-06-07T18:19:36.567Z,65.50
2019-06-07T18:22:06.086Z,65.40
2019-06-07T18:24:42.679Z,65.40
2019-06-07T18:27:12.256Z,65.30
2019-06-07T18:29:41.716Z,65.30
2019-06-07T18:32:13.470Z,65.40
2019-06-07T18:34:42.324Z,65.40
2019-06-07T18:37:11.770Z,65.30
2019-06-07T18:39:41.303Z,65.20
2019-06-07T18:42:10.821Z,65.40
2019-06-07T18:44:40.313Z,65.00
2019-06-07T18:47:09.803Z,65.10
2019-06-07T18:49:39.375Z,65.20
2019-06-07T18:52:14.970Z,65.10
2019-06-07T18:54:44.623Z,65.10
2019-06-07T18:57:30.630Z,65.40
2019-06-07T19:00:00.034Z,65.20
2019-06-07T19:02:30.613Z,65.00
2019-06-07T19:05:00.127Z,65.10
2019-06-07T19:07:32.791Z,65.00
2019-06-07T19:10:02.237Z,65.10
2019-06-07T19:12:31.687Z,64.90
2019-06-07T19:15:01.200Z,65.00
2019-06-07T19:17:30.806Z,64.90
2019-06-07T19:20:00.667Z,64.90
2019-06-07T19:22:30.333Z,65.10
2019-06-07T19:25:00.470Z,65.10
2019-06-07T19:27:32.848Z,65.00
2019-06-07T19:30:01.362Z,64.80
2019-06-07T19:32:30.700Z,64.90
2019-06-07T19:35:00.152Z,65.10
2019-06-07T19:37:29.680Z,64.80
2019-06-07T19:40:00.130Z,65.00
2019-06-07T19:42:54.117Z,64.70
2019-06-07T19:45:30.524Z,64.60
2019-06-07T19:47:56.542Z,64.60
2019-06-07T19:50:30.616Z,64.80
2019-06-07T19:53:01.183Z,64.90
2019-06-07T19:55:30.816Z,64.80
2019-06-07T19:58:01.632Z,64.70
2019-06-07T20:00:31.568Z,64.80
2019-06-07T20:03:06.583Z,64.50
2019-06-07T20:05:35.921Z,64.60
2019-06-07T20:08:05.302Z,64.60
2019-06-07T20:10:35.171Z,64.50
2019-06-07T20:13:05.154Z,64.80
2019-06-07T20:15:34.997Z,64.70
2019-06-07T20:18:05.614Z,64.80
2019-06-07T20:20:53.933Z,64.90
2019-06-07T20:23:23.478Z,64.70
2019-06-07T20:25:52.874Z,64.50
2019-06-07T20:28:30.714Z,64.50
2019-06-07T20:31:01.833Z,64.30
2019-06-07T20:33:31.283Z,64.80
2019-06-07T20:36:00.882Z,64.30
2019-06-07T20:38:30.248Z,64.10
2019-06-07T20:40:59.763Z,64.10
2019-06-07T20:43:29.655Z,64.30
2019-06-07T20:46:01.843Z,64.20
2019-06-07T20:48:30.310Z,64.10
2019-06-07T20:51:01.219Z,64.10
2019-06-07T20:53:30.938Z,64.10
2019-06-07T20:56:33.867Z,64.10
2019-06-07T20:59:04.676Z,64.00
2019-06-07T21:01:34.272Z,64.00
2019-06-07T21:04:58.956Z,64.00
2019-06-07T21:07:28.579Z,63.80
2019-06-07T21:10:12.653Z,64.60
2019-06-07T21:12:42.105Z,64.10
2019-06-07T21:15:18.708Z,63.80
2019-06-07T21:17:48.018Z,63.70
2019-06-07T21:20:17.520Z,63.70
2019-06-07T21:22:46.957Z,63.80
2019-06-07T21:25:16.474Z,63.60
2019-06-07T21:27:45.977Z,63.70
2019-06-07T21:30:15.546Z,63.50
2019-06-07T21:33:01.371Z,63.50
2019-06-07T21:35:31.070Z,63.20
2019-06-07T21:38:01.922Z,63.10
2019-06-07T21:40:31.593Z,63.10
2019-06-07T21:43:02.094Z,62.80
2019-06-07T21:45:31.726Z,63.30
2019-06-07T21:51:42.321Z,63.20
2019-06-07T21:54:14.392Z,63.00
2019-06-07T21:56:42.842Z,63.20
2019-06-07T21:59:13.276Z,62.70
2019-06-07T22:01:48.723Z,63.10
2019-06-07T22:04:18.162Z,63.00
2019-06-07T22:06:47.636Z,63.10
2019-06-07T22:09:16.921Z,63.00
2019-06-07T22:11:46.290Z,63.40
2019-06-07T22:14:15.801Z,62.90
2019-06-07T22:16:45.304Z,62.40
2019-06-07T22:19:15.001Z,62.70
2019-06-07T22:21:44.491Z,62.80
2019-06-07T22:24:15.132Z,62.60
2019-06-07T22:27:39.854Z,62.40
2019-06-07T22:30:10.487Z,62.20
2019-06-07T22:32:40.107Z,62.90
2019-06-07T22:35:10.796Z,62.60
2019-06-07T22:37:40.521Z,62.90
2019-06-07T22:40:10.672Z,63.30
2019-06-07T22:42:48.825Z,62.40
2019-06-07T22:45:19.000Z,63.40
2019-06-07T22:48:09.959Z,62.90
2019-06-07T22:50:39.421Z,62.60
2019-06-07T22:53:30.022Z,62.70
2019-06-07T22:56:09.789Z,62.00
2019-06-07T22:59:15.262Z,62.80
2019-06-07T23:01:43.174Z,61.90
2019-06-07T23:04:12.647Z,62.00
2019-06-07T23:06:41.982Z,61.70
2019-06-07T23:09:11.465Z,61.90
2019-06-07T23:11:40.944Z,61.60
2019-06-07T23:14:11.198Z,61.20
2019-06-07T23:16:54.409Z,62.10
2019-06-07T23:19:12.023Z,61.50
2019-06-07T23:21:41.520Z,62.10
2019-06-07T23:24:11.864Z,62.00
2019-06-07T23:26:41.558Z,61.90
2019-06-07T23:29:12.857Z,61.70
2019-06-07T23:32:20.201Z,62.10
2019-06-07T23:35:06.854Z,61.90
2019-06-07T23:37:36.435Z,62.00
2019-06-07T23:40:05.954Z,62.10
2019-06-07T23:42:35.426Z,61.40
2019-06-07T23:45:23.982Z,62.00
2019-06-07T23:47:53.517Z,61.50
2019-06-07T23:50:22.808Z,61.30
2019-06-07T23:52:52.326Z,62.40
2019-06-07T23:55:22.344Z,63.80
2019-06-07T23:57:51.947Z,62.40
